sensor_id;sensor_type;location;lat;lon;timestamp;pressure;altitude;pressure_sealevel;temperature
69857;BMP280;57147;53.582;10.112;2022-10-17T00:04:18;101823.63;;;11.56
69857;BMP280;57147;53.582;10.112;2022-10-17T00:09:24;101830.03;;;11.60
69857;BMP280;57147;53.582;10.112;2022-10-17T00:14:27;101841.19;;;11.67
69857;BMP280;57147;53.582;10.112;2022-10-17T00:19:37;101853.69;;;11.66
69857;BMP280;57147;53.582;10.112;2022-10-17T00:24:41;101870.97;;;11.69
69857;BMP280;57147;53.582;10.112;2022-10-17T00:29:47;101875.75;;;11.72
69857;BMP280;57147;53.582;10.112;2022-10-17T00:34:53;101852.88;;;11.71
69857;BMP280;57147;53.582;10.112;2022-10-17T00:40:06;101865.63;;;11.69
69857;BMP280;57147;53.582;10.112;2022-10-17T00:45:19;101865.13;;;11.67
69857;BMP280;57147;53.582;10.112;2022-10-17T00:50:21;101855.53;;;11.71
69857;BMP280;57147;53.582;10.112;2022-10-17T00:55:30;101873.59;;;11.74
69857;BMP280;57147;53.582;10.112;2022-10-17T01:00:32;101859.97;;;11.80
69857;BMP280;57147;53.582;10.112;2022-10-17T01:05:39;101863.44;;;11.81
69857;BMP280;57147;53.582;10.112;2022-10-17T01:10:53;101880.53;;;11.70
69857;BMP280;57147;53.582;10.112;2022-10-17T01:16:06;101882.91;;;11.76
69857;BMP280;57147;53.582;10.112;2022-10-17T01:26:41;101867.47;;;11.78
69857;BMP280;57147;53.582;10.112;2022-10-17T01:31:49;101874.59;;;11.98
69857;BMP280;57147;53.582;10.112;2022-10-17T01:36:56;101869.78;;;12.05
69857;BMP280;57147;53.582;10.112;2022-10-17T01:42:06;101877.47;;;12.07
69857;BMP280;57147;53.582;10.112;2022-10-17T01:47:17;101869.72;;;12.15
69857;BMP280;57147;53.582;10.112;2022-10-17T01:52:22;101873.13;;;12.21
69857;BMP280;57147;53.582;10.112;2022-10-17T01:57:33;101857.44;;;12.24
69857;BMP280;57147;53.582;10.112;2022-10-17T02:02:43;101853.63;;;12.35
69857;BMP280;57147;53.582;10.112;2022-10-17T02:07:44;101846.97;;;12.38
69857;BMP280;57147;53.582;10.112;2022-10-17T02:12:49;101840.56;;;12.44
69857;BMP280;57147;53.582;10.112;2022-10-17T02:18:06;101834.38;;;12.49
69857;BMP280;57147;53.582;10.112;2022-10-17T02:23:23;101831.16;;;12.52
69857;BMP280;57147;53.582;10.112;2022-10-17T02:28:37;101831.91;;;12.62
69857;BMP280;57147;53.582;10.112;2022-10-17T02:33:44;101840.97;;;12.61
69857;BMP280;57147;53.582;10.112;2022-10-17T02:38:53;101815.94;;;12.57
69857;BMP280;57147;53.582;10.112;2022-10-17T02:43:56;101820.09;;;12.68
69857;BMP280;57147;53.582;10.112;2022-10-17T02:49:02;101819.53;;;12.71
69857;BMP280;57147;53.582;10.112;2022-10-17T02:54:11;101820.31;;;12.72
69857;BMP280;57147;53.582;10.112;2022-10-17T02:59:19;101800.06;;;12.76
69857;BMP280;57147;53.582;10.112;2022-10-17T03:04:24;101801.06;;;12.80
69857;BMP280;57147;53.582;10.112;2022-10-17T03:09:27;101793.09;;;12.80
69857;BMP280;57147;53.582;10.112;2022-10-17T03:14:28;101792.00;;;12.81
69857;BMP280;57147;53.582;10.112;2022-10-17T03:19:33;101788.22;;;12.87
69857;BMP280;57147;53.582;10.112;2022-10-17T03:24:34;101778.03;;;12.94
69857;BMP280;57147;53.582;10.112;2022-10-17T03:29:37;101787.59;;;12.95
69857;BMP280;57147;53.582;10.112;2022-10-17T03:34:42;101774.38;;;12.85
69857;BMP280;57147;53.582;10.112;2022-10-17T03:39:43;101791.44;;;12.84
69857;BMP280;57147;53.582;10.112;2022-10-17T03:44:46;101788.72;;;12.89
69857;BMP280;57147;53.582;10.112;2022-10-17T03:49:50;101795.09;;;12.93
69857;BMP280;57147;53.582;10.112;2022-10-17T03:54:51;101787.16;;;12.88
69857;BMP280;57147;53.582;10.112;2022-10-17T03:59:52;101792.59;;;12.73
69857;BMP280;57147;53.582;10.112;2022-10-17T04:04:55;101783.63;;;12.64
69857;BMP280;57147;53.582;10.112;2022-10-17T04:10:06;101781.53;;;12.61
69857;BMP280;57147;53.582;10.112;2022-10-17T04:15:08;101777.31;;;12.55
69857;BMP280;57147;53.582;10.112;2022-10-17T04:20:12;101769.91;;;12.47
69857;BMP280;57147;53.582;10.112;2022-10-17T04:25:12;101770.00;;;12.37
69857;BMP280;57147;53.582;10.112;2022-10-17T04:30:13;101782.25;;;12.38
69857;BMP280;57147;53.582;10.112;2022-10-17T04:35:16;101776.41;;;12.35
69857;BMP280;57147;53.582;10.112;2022-10-17T04:40:17;101775.88;;;12.33
69857;BMP280;57147;53.582;10.112;2022-10-17T04:45:18;101757.25;;;12.28
69857;BMP280;57147;53.582;10.112;2022-10-17T04:50:21;101762.91;;;12.22
69857;BMP280;57147;53.582;10.112;2022-10-17T04:55:21;101760.00;;;12.18
69857;BMP280;57147;53.582;10.112;2022-10-17T05:00:22;101748.34;;;12.09
69857;BMP280;57147;53.582;10.112;2022-10-17T05:05:25;101750.53;;;11.97
69857;BMP280;57147;53.582;10.112;2022-10-17T05:10:26;101744.19;;;11.93
69857;BMP280;57147;53.582;10.112;2022-10-17T05:15:26;101748.44;;;11.89
69857;BMP280;57147;53.582;10.112;2022-10-17T05:20:30;101748.44;;;11.89
69857;BMP280;57147;53.582;10.112;2022-10-17T05:25:30;101732.78;;;11.82
69857;BMP280;57147;53.582;10.112;2022-10-17T05:30:31;101735.16;;;11.84
69857;BMP280;57147;53.582;10.112;2022-10-17T05:35:34;101741.03;;;11.81
69857;BMP280;57147;53.582;10.112;2022-10-17T05:40:35;101749.63;;;11.73
69857;BMP280;57147;53.582;10.112;2022-10-17T05:45:36;101739.53;;;11.70
69857;BMP280;57147;53.582;10.112;2022-10-17T05:50:39;101744.06;;;11.69
69857;BMP280;57147;53.582;10.112;2022-10-17T05:55:39;101737.41;;;11.72
69857;BMP280;57147;53.582;10.112;2022-10-17T06:00:40;101740.06;;;11.72
69857;BMP280;57147;53.582;10.112;2022-10-17T06:05:43;101732.59;;;11.69
69857;BMP280;57147;53.582;10.112;2022-10-17T06:10:46;101741.16;;;11.61
69857;BMP280;57147;53.582;10.112;2022-10-17T06:15:46;101743.25;;;11.69
69857;BMP280;57147;53.582;10.112;2022-10-17T06:20:50;101740.56;;;11.74
69857;BMP280;57147;53.582;10.112;2022-10-17T06:25:50;101743.75;;;11.76
69857;BMP280;57147;53.582;10.112;2022-10-17T06:30:51;101739.47;;;11.80
69857;BMP280;57147;53.582;10.112;2022-10-17T06:35:55;101742.63;;;11.82
69857;BMP280;57147;53.582;10.112;2022-10-17T06:41:02;101731.44;;;11.85
69857;BMP280;57147;53.582;10.112;2022-10-17T06:46:02;101729.78;;;11.94
69857;BMP280;57147;53.582;10.112;2022-10-17T06:51:06;101731.38;;;11.95
69857;BMP280;57147;53.582;10.112;2022-10-17T06:56:08;101749.38;;;12.13
69857;BMP280;57147;53.582;10.112;2022-10-17T07:01:10;101729.09;;;12.22
69857;BMP280;57147;53.582;10.112;2022-10-17T07:06:14;101730.53;;;12.44
69857;BMP280;57147;53.582;10.112;2022-10-17T07:11:16;101746.03;;;12.65
69857;BMP280;57147;53.582;10.112;2022-10-17T07:16:17;101743.47;;;12.84
69857;BMP280;57147;53.582;10.112;2022-10-17T07:21:20;101748.03;;;13.07
69857;BMP280;57147;53.582;10.112;2022-10-17T07:26:21;101747.34;;;13.21
69857;BMP280;57147;53.582;10.112;2022-10-17T07:31:22;101758.88;;;13.40
69857;BMP280;57147;53.582;10.112;2022-10-17T07:36:25;101787.09;;;13.83
69857;BMP280;57147;53.582;10.112;2022-10-17T07:41:26;101754.16;;;13.74
69857;BMP280;57147;53.582;10.112;2022-10-17T07:46:27;101768.59;;;13.92
69857;BMP280;57147;53.582;10.112;2022-10-17T07:51:30;101766.84;;;14.01
69857;BMP280;57147;53.582;10.112;2022-10-17T07:56:31;101756.66;;;14.22
69857;BMP280;57147;53.582;10.112;2022-10-17T08:01:31;101783.22;;;14.32
69857;BMP280;57147;53.582;10.112;2022-10-17T08:06:37;101773.16;;;14.56
69857;BMP280;57147;53.582;10.112;2022-10-17T08:11:37;101776.41;;;14.85
69857;BMP280;57147;53.582;10.112;2022-10-17T08:16:38;101758.69;;;15.03
69857;BMP280;57147;53.582;10.112;2022-10-17T08:21:41;101754.66;;;15.19
69857;BMP280;57147;53.582;10.112;2022-10-17T08:26:42;101758.44;;;15.27
69857;BMP280;57147;53.582;10.112;2022-10-17T08:31:42;101751.41;;;15.31
69857;BMP280;57147;53.582;10.112;2022-10-17T08:36:45;101746.06;;;15.45
69857;BMP280;57147;53.582;10.112;2022-10-17T08:41:57;101748.59;;;15.63
69857;BMP280;57147;53.582;10.112;2022-10-17T08:47:02;101755.88;;;15.71
69857;BMP280;57147;53.582;10.112;2022-10-17T08:52:17;101744.34;;;15.85
69857;BMP280;57147;53.582;10.112;2022-10-17T08:57:19;101745.41;;;15.61
69857;BMP280;57147;53.582;10.112;2022-10-17T09:02:37;101742.13;;;16.00
69857;BMP280;57147;53.582;10.112;2022-10-17T09:07:49;101753.22;;;16.16
69857;BMP280;57147;53.582;10.112;2022-10-17T09:18:13;101766.28;;;16.71
69857;BMP280;57147;53.582;10.112;2022-10-17T09:23:20;101776.41;;;17.22
69857;BMP280;57147;53.582;10.112;2022-10-17T09:28:26;101753.19;;;17.34
69857;BMP280;57147;53.582;10.112;2022-10-17T09:33:29;101770.44;;;17.50
69857;BMP280;57147;53.582;10.112;2022-10-17T09:38:39;101759.88;;;17.45
69857;BMP280;57147;53.582;10.112;2022-10-17T09:43:40;101773.75;;;17.47
69857;BMP280;57147;53.582;10.112;2022-10-17T09:48:43;101762.56;;;17.54
69857;BMP280;57147;53.582;10.112;2022-10-17T09:53:50;101763.34;;;17.54
69857;BMP280;57147;53.582;10.112;2022-10-17T09:58:56;101760.44;;;17.94
69857;BMP280;57147;53.582;10.112;2022-10-17T10:04:15;101752.41;;;18.40
69857;BMP280;57147;53.582;10.112;2022-10-17T10:09:24;101761.00;;;18.34
69857;BMP280;57147;53.582;10.112;2022-10-17T10:14:28;101758.41;;;18.75
69857;BMP280;57147;53.582;10.112;2022-10-17T10:19:31;101773.53;;;18.68
69857;BMP280;57147;53.582;10.112;2022-10-17T10:24:34;101771.34;;;18.90
69857;BMP280;57147;53.582;10.112;2022-10-17T10:29:36;101776.88;;;19.15
69857;BMP280;57147;53.582;10.112;2022-10-17T10:34:46;101775.91;;;18.90
69857;BMP280;57147;53.582;10.112;2022-10-17T10:39:51;101776.50;;;19.25
69857;BMP280;57147;53.582;10.112;2022-10-17T10:44:54;101779.13;;;19.54
69857;BMP280;57147;53.582;10.112;2022-10-17T10:50:17;101759.16;;;19.34
69857;BMP280;57147;53.582;10.112;2022-10-17T10:55:26;101773.53;;;19.38
69857;BMP280;57147;53.582;10.112;2022-10-17T11:00:29;101775.66;;;19.33
69857;BMP280;57147;53.582;10.112;2022-10-17T11:05:40;101784.63;;;19.58
69857;BMP280;57147;53.582;10.112;2022-10-17T11:10:54;101796.72;;;19.52
69857;BMP280;57147;53.582;10.112;2022-10-17T11:15:59;101791.13;;;19.57
69857;BMP280;57147;53.582;10.112;2022-10-17T11:21:08;101792.59;;;19.33
69857;BMP280;57147;53.582;10.112;2022-10-17T11:26:17;101791.34;;;19.52
69857;BMP280;57147;53.582;10.112;2022-10-17T11:31:20;101798.66;;;19.63
69857;BMP280;57147;53.582;10.112;2022-10-17T11:36:25;101812.06;;;19.72
69857;BMP280;57147;53.582;10.112;2022-10-17T11:41:36;101799.19;;;19.57
69857;BMP280;57147;53.582;10.112;2022-10-17T11:46:40;101792.47;;;19.83
69857;BMP280;57147;53.582;10.112;2022-10-17T11:51:45;101778.06;;;20.12
69857;BMP280;57147;53.582;10.112;2022-10-17T11:57:00;101778.53;;;20.14
69857;BMP280;57147;53.582;10.112;2022-10-17T12:02:08;101762.63;;;20.01
69857;BMP280;57147;53.582;10.112;2022-10-17T12:07:14;101766.78;;;19.32
69857;BMP280;57147;53.582;10.112;2022-10-17T12:12:27;101814.94;;;19.05
69857;BMP280;57147;53.582;10.112;2022-10-17T12:17:30;101801.88;;;18.65
69857;BMP280;57147;53.582;10.112;2022-10-17T12:22:32;101824.53;;;18.56
69857;BMP280;57147;53.582;10.112;2022-10-17T12:27:45;101836.41;;;18.46
69857;BMP280;57147;53.582;10.112;2022-10-17T12:32:55;101836.09;;;18.47
69857;BMP280;57147;53.582;10.112;2022-10-17T12:38:18;101819.44;;;18.63
69857;BMP280;57147;53.582;10.112;2022-10-17T12:43:46;101804.56;;;18.65
69857;BMP280;57147;53.582;10.112;2022-10-17T12:49:20;101827.78;;;18.70
69857;BMP280;57147;53.582;10.112;2022-10-17T12:54:21;101830.03;;;18.68
69857;BMP280;57147;53.582;10.112;2022-10-17T12:59:26;101854.44;;;18.54
69857;BMP280;57147;53.582;10.112;2022-10-17T13:04:29;101854.78;;;18.44
69857;BMP280;57147;53.582;10.112;2022-10-17T13:09:34;101866.00;;;18.37
69857;BMP280;57147;53.582;10.112;2022-10-17T13:14:39;101869.66;;;18.33
69857;BMP280;57147;53.582;10.112;2022-10-17T13:19:42;101915.06;;;18.17
69857;BMP280;57147;53.582;10.112;2022-10-17T13:24:44;101862.41;;;17.08
69857;BMP280;57147;53.582;10.112;2022-10-17T13:29:50;101716.19;;;16.18
69857;BMP280;57147;53.582;10.112;2022-10-17T13:35:09;101669.72;;;16.22
69857;BMP280;57147;53.582;10.112;2022-10-17T13:40:15;101666.47;;;16.34
69857;BMP280;57147;53.582;10.112;2022-10-17T13:45:21;101654.78;;;16.30
69857;BMP280;57147;53.582;10.112;2022-10-17T13:50:26;101678.28;;;16.33
69857;BMP280;57147;53.582;10.112;2022-10-17T13:55:27;101693.16;;;16.17
69857;BMP280;57147;53.582;10.112;2022-10-17T14:00:30;101699.25;;;16.00
69857;BMP280;57147;53.582;10.112;2022-10-17T14:05:32;101673.25;;;16.01
69857;BMP280;57147;53.582;10.112;2022-10-17T14:10:34;101635.38;;;15.94
69857;BMP280;57147;53.582;10.112;2022-10-17T14:15:44;101662.88;;;16.08
69857;BMP280;57147;53.582;10.112;2022-10-17T14:20:47;101646.66;;;16.04
69857;BMP280;57147;53.582;10.112;2022-10-17T14:26:03;101612.22;;;16.29
69857;BMP280;57147;53.582;10.112;2022-10-17T14:31:19;101611.63;;;16.40
69857;BMP280;57147;53.582;10.112;2022-10-17T14:36:29;101604.25;;;16.46
69857;BMP280;57147;53.582;10.112;2022-10-17T14:41:32;101625.06;;;16.49
69857;BMP280;57147;53.582;10.112;2022-10-17T14:46:36;101644.41;;;16.37
69857;BMP280;57147;53.582;10.112;2022-10-17T14:51:37;101658.91;;;16.36
69857;BMP280;57147;53.582;10.112;2022-10-17T14:56:40;101672.31;;;16.36
69857;BMP280;57147;53.582;10.112;2022-10-17T15:01:43;101684.41;;;16.25
69857;BMP280;57147;53.582;10.112;2022-10-17T15:06:44;101690.16;;;16.10
69857;BMP280;57147;53.582;10.112;2022-10-17T15:11:44;101697.16;;;15.97
69857;BMP280;57147;53.582;10.112;2022-10-17T15:16:47;101697.25;;;16.06
69857;BMP280;57147;53.582;10.112;2022-10-17T15:21:48;101707.97;;;16.06
69857;BMP280;57147;53.582;10.112;2022-10-17T15:26:49;101714.13;;;16.06
69857;BMP280;57147;53.582;10.112;2022-10-17T15:31:52;101720.31;;;15.93
69857;BMP280;57147;53.582;10.112;2022-10-17T15:36:53;101723.56;;;15.82
69857;BMP280;57147;53.582;10.112;2022-10-17T15:41:53;101734.06;;;15.78
69857;BMP280;57147;53.582;10.112;2022-10-17T15:46:57;101728.91;;;15.82
69857;BMP280;57147;53.582;10.112;2022-10-17T15:51:57;101731.09;;;15.80
69857;BMP280;57147;53.582;10.112;2022-10-17T15:56:58;101744.09;;;15.72
69857;BMP280;57147;53.582;10.112;2022-10-17T16:02:01;101740.03;;;15.75
69857;BMP280;57147;53.582;10.112;2022-10-17T16:07:02;101736.66;;;15.69
69857;BMP280;57147;53.582;10.112;2022-10-17T16:12:03;101730.56;;;15.55
69857;BMP280;57147;53.582;10.112;2022-10-17T16:17:08;101740.38;;;15.60
69857;BMP280;57147;53.582;10.112;2022-10-17T16:22:17;101746.41;;;15.65
69857;BMP280;57147;53.582;10.112;2022-10-17T16:27:19;101737.38;;;15.61
69857;BMP280;57147;53.582;10.112;2022-10-17T16:32:22;101748.09;;;15.61
69857;BMP280;57147;53.582;10.112;2022-10-17T16:37:22;101754.81;;;15.72
69857;BMP280;57147;53.582;10.112;2022-10-17T16:42:23;101751.66;;;15.70
69857;BMP280;57147;53.582;10.112;2022-10-17T16:47:26;101759.19;;;15.68
69857;BMP280;57147;53.582;10.112;2022-10-17T16:52:27;101762.69;;;15.55
69857;BMP280;57147;53.582;10.112;2022-10-17T16:57:27;101775.47;;;15.58
69857;BMP280;57147;53.582;10.112;2022-10-17T17:02:31;101773.28;;;15.60
69857;BMP280;57147;53.582;10.112;2022-10-17T17:07:31;101781.31;;;15.60
69857;BMP280;57147;53.582;10.112;2022-10-17T17:12:32;101786.47;;;15.57
69857;BMP280;57147;53.582;10.112;2022-10-17T17:17:35;101801.72;;;15.56
69857;BMP280;57147;53.582;10.112;2022-10-17T17:22:36;101796.00;;;15.49
69857;BMP280;57147;53.582;10.112;2022-10-17T17:27:36;101804.91;;;15.58
69857;BMP280;57147;53.582;10.112;2022-10-17T17:32:40;101816.72;;;15.57
69857;BMP280;57147;53.582;10.112;2022-10-17T17:37:40;101814.03;;;15.57
69857;BMP280;57147;53.582;10.112;2022-10-17T17:42:41;101810.88;;;15.55
69857;BMP280;57147;53.582;10.112;2022-10-17T17:47:44;101811.13;;;15.67
69857;BMP280;57147;53.582;10.112;2022-10-17T17:52:45;101816.03;;;15.65
69857;BMP280;57147;53.582;10.112;2022-10-17T17:57:46;101825.72;;;15.61
69857;BMP280;57147;53.582;10.112;2022-10-17T18:02:49;101834.03;;;15.73
69857;BMP280;57147;53.582;10.112;2022-10-17T18:07:50;101828.50;;;15.56
69857;BMP280;57147;53.582;10.112;2022-10-17T18:12:50;101831.28;;;15.51
69857;BMP280;57147;53.582;10.112;2022-10-17T18:17:53;101818.81;;;15.60
69857;BMP280;57147;53.582;10.112;2022-10-17T18:22:54;101828.50;;;15.56
69857;BMP280;57147;53.582;10.112;2022-10-17T18:27:54;101838.22;;;15.52
69857;BMP280;57147;53.582;10.112;2022-10-17T18:32:58;101840.81;;;15.57
69857;BMP280;57147;53.582;10.112;2022-10-17T18:37:58;101848.56;;;15.45
69857;BMP280;57147;53.582;10.112;2022-10-17T18:42:59;101861.63;;;15.47
69857;BMP280;57147;53.582;10.112;2022-10-17T18:48:02;101884.91;;;15.46
69857;BMP280;57147;53.582;10.112;2022-10-17T18:53:03;101891.38;;;15.45
69857;BMP280;57147;53.582;10.112;2022-10-17T18:58:04;101891.97;;;15.42
69857;BMP280;57147;53.582;10.112;2022-10-17T19:03:07;101889.28;;;15.42
69857;BMP280;57147;53.582;10.112;2022-10-17T19:08:07;101891.16;;;15.42
69857;BMP280;57147;53.582;10.112;2022-10-17T19:13:08;101895.91;;;15.31
69857;BMP280;57147;53.582;10.112;2022-10-17T19:18:12;101899.09;;;15.33
69857;BMP280;57147;53.582;10.112;2022-10-17T19:23:12;101901.50;;;15.35
69857;BMP280;57147;53.582;10.112;2022-10-17T19:28:13;101895.91;;;15.31
69857;BMP280;57147;53.582;10.112;2022-10-17T19:33:16;101904.34;;;15.38
69857;BMP280;57147;53.582;10.112;2022-10-17T19:38:17;101910.41;;;15.30
69857;BMP280;57147;53.582;10.112;2022-10-17T19:43:18;101918.34;;;15.21
69857;BMP280;57147;53.582;10.112;2022-10-17T19:48:21;101927.25;;;15.17
69857;BMP280;57147;53.582;10.112;2022-10-17T19:53:22;101942.03;;;14.96
69857;BMP280;57147;53.582;10.112;2022-10-17T19:58:24;101949.94;;;14.87
69857;BMP280;57147;53.582;10.112;2022-10-17T20:03:28;101969.31;;;14.79
69857;BMP280;57147;53.582;10.112;2022-10-17T20:08:29;101991.03;;;14.72
69857;BMP280;57147;53.582;10.112;2022-10-17T20:13:29;102010.94;;;14.66
69857;BMP280;57147;53.582;10.112;2022-10-17T20:18:33;102038.16;;;14.68
69857;BMP280;57147;53.582;10.112;2022-10-17T20:23:34;102051.28;;;14.46
69857;BMP280;57147;53.582;10.112;2022-10-17T20:28:35;102075.38;;;14.41
69857;BMP280;57147;53.582;10.112;2022-10-17T20:33:38;102089.63;;;14.36
69857;BMP280;57147;53.582;10.112;2022-10-17T20:38:39;102085.28;;;14.40
69857;BMP280;57147;53.582;10.112;2022-10-17T20:43:40;102106.16;;;14.38
69857;BMP280;57147;53.582;10.112;2022-10-17T20:48:43;102107.44;;;14.41
69857;BMP280;57147;53.582;10.112;2022-10-17T20:53:43;102137.50;;;14.33
69857;BMP280;57147;53.582;10.112;2022-10-17T20:58:45;102135.34;;;14.35
69857;BMP280;57147;53.582;10.112;2022-10-17T21:03:51;102152.75;;;14.32
69857;BMP280;57147;53.582;10.112;2022-10-17T21:08:53;102158.91;;;14.33
69857;BMP280;57147;53.582;10.112;2022-10-17T21:13:57;102157.03;;;14.33
69857;BMP280;57147;53.582;10.112;2022-10-17T21:19:01;102177.66;;;14.23
69857;BMP280;57147;53.582;10.112;2022-10-17T21:24:04;102186.25;;;14.20
69857;BMP280;57147;53.582;10.112;2022-10-17T21:29:06;102177.66;;;14.23
69857;BMP280;57147;53.582;10.112;2022-10-17T21:34:10;102182.47;;;14.26
69857;BMP280;57147;53.582;10.112;2022-10-17T21:39:12;102185.38;;;14.29
69857;BMP280;57147;53.582;10.112;2022-10-17T21:44:15;102191.50;;;14.30
69857;BMP280;57147;53.582;10.112;2022-10-17T21:49:20;102184.56;;;14.29
69857;BMP280;57147;53.582;10.112;2022-10-17T21:54:22;102200.59;;;14.29
69857;BMP280;57147;53.582;10.112;2022-10-17T21:59:23;102192.06;;;14.27
69857;BMP280;57147;53.582;10.112;2022-10-17T22:04:27;102196.94;;;14.20
69857;BMP280;57147;53.582;10.112;2022-10-17T22:09:27;102167.56;;;14.20
69857;BMP280;57147;53.582;10.112;2022-10-17T22:14:28;102181.38;;;14.27
69857;BMP280;57147;53.582;10.112;2022-10-17T22:19:31;102190.16;;;14.32
69857;BMP280;57147;53.582;10.112;2022-10-17T22:24:32;102195.81;;;14.26
69857;BMP280;57147;53.582;10.112;2022-10-17T22:29:33;102196.91;;;14.25
69857;BMP280;57147;53.582;10.112;2022-10-17T22:34:36;102191.03;;;14.23
69857;BMP280;57147;53.582;10.112;2022-10-17T22:39:36;102193.44;;;14.24
69857;BMP280;57147;53.582;10.112;2022-10-17T22:44:37;102203.56;;;14.27
69857;BMP280;57147;53.582;10.112;2022-10-17T22:49:40;102191.97;;;14.37
69857;BMP280;57147;53.582;10.112;2022-10-17T22:54:41;102202.72;;;14.32
69857;BMP280;57147;53.582;10.112;2022-10-17T22:59:42;102203.00;;;14.30
69857;BMP280;57147;53.582;10.112;2022-10-17T23:04:45;102197.09;;;14.33
69857;BMP280;57147;53.582;10.112;2022-10-17T23:09:45;102195.19;;;14.34
69857;BMP280;57147;53.582;10.112;2022-10-17T23:14:46;102206.88;;;14.43
69857;BMP280;57147;53.582;10.112;2022-10-17T23:19:49;102205.75;;;14.49
69857;BMP280;57147;53.582;10.112;2022-10-17T23:24:50;102217.56;;;14.43
69857;BMP280;57147;53.582;10.112;2022-10-17T23:29:50;102218.25;;;14.54
69857;BMP280;57147;53.582;10.112;2022-10-17T23:34:53;102234.75;;;14.37
69857;BMP280;57147;53.582;10.112;2022-10-17T23:39:54;102218.22;;;14.30
69857;BMP280;57147;53.582;10.112;2022-10-17T23:44:54;102212.34;;;14.33
69857;BMP280;57147;53.582;10.112;2022-10-17T23:49:58;102208.66;;;14.24
69857;BMP280;57147;53.582;10.112;2022-10-17T23:54:58;102218.88;;;14.17
69857;BMP280;57147;53.582;10.112;2022-10-17T23:59:59;102222.63;;;14.16
